Time;durP1;ratioP1;P1;durP2;ratioP2;P2;SDS_P1;SDS_P2;PMS_P1;PMS_P2;Temp;Humidity;BMP_temperature;BMP_pressure;BME280_temperature;BME280_humidity;BME280_pressure;Samples;Min_cycle;Max_cycle;Signal;HPM_P1;HPM_P2
2021/10/06 00:02:06;;;;;;;12.93;2.10;;;12.60;99.90;;;;;;4974538;28;20190;-93
2021/10/06 00:04:32;;;;;;;19.23;2.50;;;12.60;99.90;;;;;;4960327;28;20198;-93
2021/10/06 00:06:58;;;;;;;13.63;2.13;;;12.60;99.90;;;;;;4978227;28;20187;-94
2021/10/06 00:09:23;;;;;;;13.87;2.20;;;12.60;99.90;;;;;;4981949;28;20194;-94
2021/10/06 00:11:49;;;;;;;11.93;2.53;;;12.50;99.90;;;;;;4966099;28;20246;-94
2021/10/06 00:14:15;;;;;;;17.57;2.70;;;12.50;99.90;;;;;;4965347;28;20182;-93
2021/10/06 00:16:41;;;;;;;15.63;2.40;;;12.60;99.90;;;;;;4955978;28;20574;-94
2021/10/06 00:19:07;;;;;;;17.93;2.53;;;12.50;99.90;;;;;;4954378;28;20632;-93
2021/10/06 00:21:33;;;;;;;16.20;2.70;;;12.50;99.90;;;;;;4959296;28;20200;-93
2021/10/06 00:23:59;;;;;;;17.43;2.60;;;12.50;99.90;;;;;;4974797;28;20569;-93
2021/10/06 00:26:25;;;;;;;10.23;2.43;;;12.50;99.90;;;;;;4959068;28;20179;-94
2021/10/06 00:28:50;;;;;;;18.20;2.40;;;12.40;99.90;;;;;;4972056;28;20193;-94
2021/10/06 00:31:16;;;;;;;14.03;2.30;;;12.50;99.90;;;;;;4958102;28;20202;-94
2021/10/06 00:33:42;;;;;;;15.30;2.33;;;12.50;99.90;;;;;;4973632;28;20259;-93
2021/10/06 00:36:09;;;;;;;11.47;2.17;;;12.50;99.90;;;;;;4965417;28;20226;-94
2021/10/06 00:38:35;;;;;;;13.50;2.27;;;12.40;99.90;;;;;;4962567;28;20206;-94
2021/10/06 00:41:02;;;;;;;12.23;2.20;;;12.30;99.90;;;;;;4976426;28;20209;-94
2021/10/06 00:43:28;;;;;;;11.73;2.23;;;12.30;99.90;;;;;;4962337;28;20179;-94
2021/10/06 00:45:54;;;;;;;13.43;2.50;;;12.30;99.90;;;;;;4961339;28;20206;-94
2021/10/06 00:48:20;;;;;;;15.63;3.03;;;12.40;99.90;;;;;;4960676;28;20187;-95
2021/10/06 00:50:46;;;;;;;13.43;2.03;;;12.50;99.90;;;;;;4964716;28;20250;-93
2021/10/06 00:53:12;;;;;;;12.83;2.10;;;12.50;99.90;;;;;;4964291;28;20623;-95
2021/10/06 00:55:38;;;;;;;11.20;1.90;;;12.70;99.90;;;;;;4962751;28;20206;-94
2021/10/06 00:58:04;;;;;;;12.03;2.13;;;12.70;99.90;;;;;;4962658;28;20663;-95
2021/10/06 01:00:30;;;;;;;16.03;2.53;;;12.80;99.90;;;;;;4957104;28;20298;-95
2021/10/06 01:02:56;;;;;;;13.93;2.27;;;12.70;99.90;;;;;;4979837;28;20206;-95
2021/10/06 01:05:22;;;;;;;15.27;2.37;;;12.70;99.90;;;;;;4961547;28;20209;-95
2021/10/06 01:07:47;;;;;;;11.27;2.30;;;12.50;99.90;;;;;;4964194;28;20185;-95
2021/10/06 01:10:13;;;;;;;15.57;2.40;;;12.40;99.90;;;;;;4960096;28;20277;-94
2021/10/06 01:12:40;;;;;;;14.90;2.17;;;12.40;99.90;;;;;;4958169;28;20597;-95
2021/10/06 01:15:10;;;;;;;12.13;2.63;;;12.40;99.90;;;;;;4962682;28;20193;-94
2021/10/06 01:17:36;;;;;;;14.10;2.33;;;12.30;99.90;;;;;;4962481;28;20190;-96
2021/10/06 01:20:04;;;;;;;16.33;2.07;;;12.30;99.90;;;;;;4977996;28;20604;-94
2021/10/06 01:22:30;;;;;;;13.87;2.10;;;12.30;99.90;;;;;;4972469;28;20183;-95
2021/10/06 01:24:56;;;;;;;12.87;2.27;;;12.40;99.90;;;;;;4962301;28;20193;-96
2021/10/06 01:27:21;;;;;;;11.07;2.27;;;12.40;99.90;;;;;;4961675;28;20186;-94
2021/10/06 01:29:47;;;;;;;9.43;1.97;;;12.50;99.90;;;;;;4965323;28;20197;-95
2021/10/06 01:32:17;;;;;;;14.63;2.00;;;12.60;99.90;;;;;;4972304;28;20537;-94
2021/10/06 01:34:54;;;;;;;13.77;2.40;;;12.60;99.90;;;;;;4958651;28;20230;-93
2021/10/06 01:37:20;;;;;;;14.10;2.47;;;12.70;99.90;;;;;;4962361;28;20232;-94
2021/10/06 01:39:45;;;;;;;10.27;2.10;;;12.70;99.90;;;;;;4980282;28;20245;-93
2021/10/06 01:42:11;;;;;;;14.23;1.83;;;12.60;99.90;;;;;;4971941;28;20282;-94
2021/10/06 01:44:37;;;;;;;12.87;1.97;;;12.40;99.90;;;;;;4973763;28;20173;-95
2021/10/06 01:47:03;;;;;;;14.60;2.33;;;12.40;99.90;;;;;;4961485;28;20206;-94
2021/10/06 01:49:29;;;;;;;13.53;1.87;;;12.50;99.90;;;;;;4962164;28;20193;-94
2021/10/06 01:51:54;;;;;;;12.60;2.33;;;12.40;99.90;;;;;;4962309;28;20278;-94
2021/10/06 01:54:20;;;;;;;11.60;2.03;;;12.40;99.90;;;;;;4976638;28;20191;-94
2021/10/06 01:56:46;;;;;;;11.13;1.87;;;12.40;99.90;;;;;;4954889;28;20605;-93
2021/10/06 01:59:12;;;;;;;11.30;1.60;;;12.40;99.90;;;;;;4977315;28;20229;-94
2021/10/06 02:01:37;;;;;;;12.63;1.83;;;12.40;99.90;;;;;;4957845;28;20183;-93
2021/10/06 02:04:03;;;;;;;9.63;1.73;;;12.40;99.90;;;;;;4962776;28;20187;-95
2021/10/06 02:06:29;;;;;;;10.77;1.80;;;12.30;99.90;;;;;;4959595;28;20182;-95
2021/10/06 02:08:56;;;;;;;9.10;1.80;;;12.40;99.90;;;;;;4970389;28;20194;-94
2021/10/06 02:11:21;;;;;;;13.87;1.80;;;12.40;99.90;;;;;;4976655;28;20225;-95
2021/10/06 02:13:47;;;;;;;11.97;2.03;;;12.30;99.90;;;;;;4962792;28;20183;-94
2021/10/06 02:16:13;;;;;;;8.20;1.63;;;12.20;99.90;;;;;;4983511;28;20190;-94
2021/10/06 02:18:39;;;;;;;13.40;1.80;;;12.20;99.90;;;;;;4962312;28;20198;-95
2021/10/06 02:21:05;;;;;;;11.77;2.00;;;12.30;99.90;;;;;;4975380;28;20206;-95
2021/10/06 02:23:30;;;;;;;11.60;1.70;;;12.30;99.90;;;;;;4959988;28;20191;-95
2021/10/06 02:25:56;;;;;;;13.97;2.03;;;12.20;99.90;;;;;;4962396;28;20181;-94
2021/10/06 02:28:23;;;;;;;14.67;2.13;;;12.20;99.90;;;;;;4961524;28;20187;-94
2021/10/06 02:30:49;;;;;;;14.07;1.90;;;12.20;99.90;;;;;;4963543;28;20232;-95
2021/10/06 02:33:15;;;;;;;10.50;1.73;;;12.20;99.90;;;;;;4961527;28;20187;-96
2021/10/06 02:35:41;;;;;;;12.17;1.97;;;12.20;99.90;;;;;;4974016;28;20226;-94
2021/10/06 02:38:06;;;;;;;11.60;1.57;;;12.30;99.90;;;;;;4958750;28;20214;-95
2021/10/06 02:40:32;;;;;;;12.13;2.30;;;12.30;99.90;;;;;;4961812;28;20205;-94
2021/10/06 02:42:58;;;;;;;12.07;1.80;;;12.30;99.90;;;;;;4973465;28;20179;-94
2021/10/06 02:45:24;;;;;;;9.97;2.37;;;12.40;99.90;;;;;;4963775;28;20197;-95
2021/10/06 02:47:50;;;;;;;12.63;1.80;;;12.50;99.90;;;;;;4962921;28;20352;-94
2021/10/06 02:50:21;;;;;;;9.87;1.53;;;12.50;99.90;;;;;;4958108;28;20186;-96
2021/10/06 02:52:47;;;;;;;12.47;1.87;;;12.50;99.90;;;;;;4962760;28;20191;-94
2021/10/06 02:55:13;;;;;;;9.00;1.40;;;12.50;99.90;;;;;;4955645;28;20236;-94
2021/10/06 02:57:39;;;;;;;12.07;1.70;;;12.50;99.90;;;;;;4979886;28;20210;-94
2021/10/06 03:00:07;;;;;;;10.13;1.60;;;12.50;99.90;;;;;;4973034;28;20725;-94
2021/10/06 03:02:35;;;;;;;13.87;1.90;;;12.50;99.90;;;;;;4957552;28;20195;-94
2021/10/06 03:05:02;;;;;;;8.30;1.30;;;12.50;99.90;;;;;;4961077;28;20210;-94
2021/10/06 03:07:27;;;;;;;11.57;1.50;;;12.40;99.90;;;;;;4959764;28;20191;-94
2021/10/06 03:09:53;;;;;;;9.63;1.53;;;12.50;99.90;;;;;;4962540;28;20186;-94
2021/10/06 03:12:19;;;;;;;10.57;1.70;;;12.50;99.90;;;;;;4975462;28;20191;-94
2021/10/06 03:14:45;;;;;;;8.60;1.57;;;12.60;99.90;;;;;;4973834;28;20190;-94
2021/10/06 03:17:10;;;;;;;11.13;1.50;;;12.50;99.90;;;;;;4960664;28;20193;-94
2021/10/06 03:19:36;;;;;;;12.13;2.20;;;12.50;99.90;;;;;;4959959;28;20957;-95
2021/10/06 03:22:02;;;;;;;10.37;1.33;;;12.40;99.90;;;;;;4972472;28;20178;-95
2021/10/06 03:24:28;;;;;;;13.20;1.60;;;12.50;99.90;;;;;;4964105;28;20190;-95
2021/10/06 03:26:54;;;;;;;15.07;1.50;;;12.70;99.90;;;;;;4968380;28;20185;-95
2021/10/06 03:29:19;;;;;;;12.50;1.70;;;12.70;99.90;;;;;;4970978;28;20191;-94
2021/10/06 03:31:45;;;;;;;11.70;1.57;;;12.70;99.90;;;;;;4968760;28;20311;-95
2021/10/06 03:34:11;;;;;;;10.77;1.90;;;12.60;99.90;;;;;;4963931;28;20439;-96
2021/10/06 03:36:37;;;;;;;13.50;2.03;;;12.50;99.90;;;;;;4956680;28;20227;-96
2021/10/06 03:39:03;;;;;;;15.47;1.87;;;12.50;99.90;;;;;;4971631;28;20195;-95
2021/10/06 03:41:29;;;;;;;12.73;1.47;;;12.50;99.90;;;;;;4962792;28;20682;-95
2021/10/06 03:43:55;;;;;;;10.13;1.80;;;12.60;99.90;;;;;;4958217;28;20187;-95
2021/10/06 03:46:21;;;;;;;8.13;1.40;;;12.60;99.90;;;;;;4958289;28;20568;-95
2021/10/06 03:48:47;;;;;;;11.30;1.40;;;12.60;99.90;;;;;;4961400;28;20270;-95
2021/10/06 03:51:13;;;;;;;11.93;1.40;;;12.60;99.90;;;;;;4974818;28;20182;-94
2021/10/06 03:53:39;;;;;;;8.30;1.93;;;12.60;99.90;;;;;;4963708;28;20188;-94
2021/10/06 03:56:05;;;;;;;10.33;1.70;;;12.60;99.90;;;;;;4972704;28;20182;-94
2021/10/06 03:58:31;;;;;;;11.93;1.50;;;12.60;99.90;;;;;;4973015;28;20213;-94
2021/10/06 04:00:57;;;;;;;9.90;1.30;;;12.60;99.90;;;;;;4960856;28;20675;-94
2021/10/06 04:03:22;;;;;;;14.10;1.70;;;12.60;99.90;;;;;;4959138;28;20201;-94
2021/10/06 04:05:48;;;;;;;11.10;1.83;;;12.70;99.90;;;;;;4960737;28;20270;-94
2021/10/06 04:08:14;;;;;;;9.17;1.40;;;12.70;99.90;;;;;;4961058;28;20175;-96
2021/10/06 04:10:40;;;;;;;8.60;1.40;;;12.70;99.90;;;;;;4978715;28;20684;-94
2021/10/06 04:13:06;;;;;;;9.03;1.40;;;12.70;99.90;;;;;;4962815;28;20553;-95
2021/10/06 04:15:32;;;;;;;13.87;1.53;;;12.70;99.90;;;;;;4974218;28;20183;-96
2021/10/06 04:17:58;;;;;;;11.27;1.30;;;12.80;99.90;;;;;;4962046;28;20255;-94
2021/10/06 04:20:24;;;;;;;6.30;1.30;;;12.80;99.90;;;;;;4962641;28;20246;-95
2021/10/06 04:22:50;;;;;;;10.97;1.50;;;12.80;99.90;;;;;;4973445;28;20214;-95
2021/10/06 04:25:15;;;;;;;9.67;2.20;;;12.80;99.90;;;;;;4960235;28;20648;-95
2021/10/06 04:27:41;;;;;;;9.20;1.53;;;12.80;99.90;;;;;;4964859;28;20333;-96
2021/10/06 04:30:08;;;;;;;9.10;1.63;;;12.70;99.90;;;;;;4975042;28;20190;-95
2021/10/06 04:32:34;;;;;;;8.47;1.30;;;12.80;99.90;;;;;;4960813;28;20195;-95
2021/10/06 04:35:00;;;;;;;12.73;1.77;;;12.80;99.90;;;;;;4965682;28;20368;-95
2021/10/06 04:37:26;;;;;;;8.13;1.50;;;12.80;99.90;;;;;;4963650;28;20216;-95
2021/10/06 04:39:52;;;;;;;11.10;1.87;;;12.90;99.90;;;;;;4961231;28;20248;-94
2021/10/06 04:42:18;;;;;;;11.13;1.50;;;12.90;99.90;;;;;;4971773;28;20190;-93
2021/10/06 04:44:45;;;;;;;9.73;1.47;;;13.00;99.90;;;;;;4963645;28;20625;-93
2021/10/06 04:47:10;;;;;;;10.23;1.30;;;13.00;99.90;;;;;;4984579;28;20187;-95
2021/10/06 04:49:36;;;;;;;10.60;1.80;;;12.90;99.90;;;;;;4961303;28;20188;-91
2021/10/06 04:52:03;;;;;;;12.97;2.00;;;12.90;99.90;;;;;;4971554;28;20214;-91
2021/10/06 04:54:28;;;;;;;8.13;1.63;;;12.90;99.90;;;;;;4959511;28;20183;-91
2021/10/06 04:56:54;;;;;;;11.10;1.60;;;12.90;99.90;;;;;;4976055;28;20202;-92
2021/10/06 04:59:20;;;;;;;13.13;2.27;;;12.90;99.90;;;;;;4960982;28;20737;-90
2021/10/06 05:01:45;;;;;;;10.03;1.70;;;13.00;99.90;;;;;;4962496;28;20191;-89
2021/10/06 05:04:17;;;;;;;9.70;1.67;;;13.00;99.90;;;;;;4977415;28;20217;-90
2021/10/06 05:06:43;;;;;;;13.57;1.70;;;13.00;99.90;;;;;;4961708;28;20627;-91
2021/10/06 05:09:08;;;;;;;9.23;1.27;;;13.00;99.90;;;;;;4959814;28;20188;-89
2021/10/06 05:11:34;;;;;;;16.47;1.73;;;12.90;99.90;;;;;;4979097;28;20191;-93
2021/10/06 05:14:01;;;;;;;12.93;1.70;;;13.00;99.90;;;;;;4974392;28;20210;-91
2021/10/06 05:16:26;;;;;;;10.37;1.63;;;13.00;99.90;;;;;;4976881;28;20174;-90
2021/10/06 05:18:52;;;;;;;9.73;2.10;;;12.90;99.90;;;;;;4959838;28;20195;-88
2021/10/06 05:21:18;;;;;;;13.00;1.80;;;13.00;99.90;;;;;;4961025;28;20214;-91
2021/10/06 05:23:44;;;;;;;12.93;1.97;;;13.00;99.90;;;;;;4960942;28;20202;-88
2021/10/06 05:26:10;;;;;;;12.97;1.90;;;13.10;99.90;;;;;;4963605;28;20190;-91
2021/10/06 05:28:40;;;;;;;16.53;1.93;;;13.20;99.90;;;;;;4962883;28;20201;-92
2021/10/06 05:31:06;;;;;;;7.07;1.23;;;13.10;99.90;;;;;;4975939;28;20218;-91
2021/10/06 05:33:32;;;;;;;10.33;1.70;;;13.10;99.90;;;;;;4961453;28;20178;-92
2021/10/06 05:35:58;;;;;;;7.57;1.40;;;13.10;99.90;;;;;;4973873;28;20227;-92
2021/10/06 05:38:24;;;;;;;10.87;1.57;;;13.20;99.90;;;;;;4957760;28;20239;-91
2021/10/06 05:40:49;;;;;;;12.93;1.63;;;13.10;99.90;;;;;;4962536;28;20587;-91
2021/10/06 05:43:15;;;;;;;10.50;1.60;;;13.10;99.90;;;;;;4974083;28;20194;-91
2021/10/06 05:45:41;;;;;;;11.40;1.90;;;13.10;99.90;;;;;;4962219;28;20187;-92
2021/10/06 05:48:07;;;;;;;14.23;1.73;;;13.00;99.90;;;;;;4960000;28;20174;-92
2021/10/06 05:50:33;;;;;;;9.90;1.70;;;13.00;99.90;;;;;;4958641;28;20180;-91
2021/10/06 05:53:04;;;;;;;15.00;1.77;;;13.00;99.90;;;;;;4976779;28;20194;-92
2021/10/06 05:55:30;;;;;;;10.93;1.77;;;13.00;99.90;;;;;;4972945;28;20436;-93
2021/10/06 05:57:56;;;;;;;12.47;1.77;;;12.90;99.90;;;;;;4966286;28;20221;-92
2021/10/06 06:00:21;;;;;;;12.40;1.70;;;13.00;99.90;;;;;;4959468;28;20701;-94
2021/10/06 06:02:47;;;;;;;10.43;1.80;;;13.00;99.90;;;;;;4959935;28;20260;-95
2021/10/06 06:05:17;;;;;;;13.00;1.77;;;13.00;99.90;;;;;;4971852;28;20719;-95
2021/10/06 06:07:43;;;;;;;13.43;1.93;;;12.90;99.90;;;;;;4976212;28;20175;-94
2021/10/06 06:10:10;;;;;;;9.47;1.60;;;13.00;99.90;;;;;;4960276;28;20211;-93
2021/10/06 06:12:36;;;;;;;11.23;1.83;;;13.00;99.90;;;;;;4958587;28;20692;-94
2021/10/06 06:15:02;;;;;;;13.80;2.10;;;12.90;99.90;;;;;;4980481;28;20262;-92
2021/10/06 06:17:28;;;;;;;11.23;1.87;;;12.90;99.90;;;;;;4998075;28;20275;-94
2021/10/06 06:19:53;;;;;;;9.70;1.60;;;12.90;99.90;;;;;;4985036;28;20202;-94
2021/10/06 06:22:19;;;;;;;15.13;2.40;;;12.90;99.90;;;;;;5008038;28;20194;-94
2021/10/06 06:24:45;;;;;;;10.37;1.70;;;12.80;99.90;;;;;;4994954;28;20170;-94
2021/10/06 06:27:11;;;;;;;10.47;1.73;;;12.80;99.90;;;;;;4998436;28;20191;-93
2021/10/06 06:29:37;;;;;;;13.63;2.20;;;12.80;99.90;;;;;;4965817;28;20602;-94
2021/10/06 06:32:03;;;;;;;11.43;1.80;;;12.80;99.90;;;;;;4967464;28;20237;-93
2021/10/06 06:34:29;;;;;;;12.90;2.10;;;12.70;99.90;;;;;;4965854;28;20262;-94
2021/10/06 06:36:54;;;;;;;10.03;1.87;;;12.60;99.90;;;;;;4967884;28;20229;-94
2021/10/06 06:39:20;;;;;;;12.83;1.97;;;12.60;99.90;;;;;;4965439;28;20198;-93
2021/10/06 06:41:46;;;;;;;12.60;2.00;;;12.60;99.90;;;;;;4968004;28;20211;-93
2021/10/06 06:44:12;;;;;;;12.40;2.20;;;12.70;99.90;;;;;;4961360;28;20625;-92
2021/10/06 06:46:39;;;;;;;9.90;1.80;;;12.70;99.90;;;;;;4981179;28;20208;-94
2021/10/06 06:49:05;;;;;;;10.17;1.60;;;12.60;99.90;;;;;;4976520;28;20194;-93
2021/10/06 06:51:31;;;;;;;9.90;1.73;;;12.60;99.90;;;;;;4965365;28;20681;-94
2021/10/06 06:53:57;;;;;;;11.53;1.57;;;12.50;99.90;;;;;;4958487;28;20273;-93
2021/10/06 06:56:23;;;;;;;11.07;1.90;;;12.50;99.90;;;;;;4966055;28;20190;-95
2021/10/06 06:58:49;;;;;;;13.50;2.50;;;12.70;99.90;;;;;;4965045;28;20186;-94
2021/10/06 07:01:18;;;;;;;9.60;1.83;;;12.70;99.90;;;;;;4961202;28;20221;-93
2021/10/06 07:03:44;;;;;;;14.20;1.83;;;12.70;99.90;;;;;;4980043;28;20190;-94
2021/10/06 07:06:10;;;;;;;13.23;2.00;;;12.70;99.90;;;;;;4961588;28;20196;-94
2021/10/06 07:08:37;;;;;;;14.63;2.07;;;12.70;99.90;;;;;;4970867;28;20179;-94
2021/10/06 07:11:03;;;;;;;9.37;1.77;;;12.80;99.90;;;;;;4961182;28;20203;-94
2021/10/06 07:13:30;;;;;;;9.53;1.63;;;12.80;99.90;;;;;;4958146;28;20674;-93
2021/10/06 07:15:56;;;;;;;9.20;1.87;;;12.70;99.90;;;;;;4960408;28;20218;-94
2021/10/06 07:18:22;;;;;;;9.90;1.80;;;12.70;99.90;;;;;;4974857;28;20193;-94
2021/10/06 07:20:48;;;;;;;10.67;1.80;;;12.70;99.90;;;;;;4964665;28;20289;-94
2021/10/06 07:23:13;;;;;;;11.80;1.70;;;12.80;99.90;;;;;;4959334;28;20186;-94
2021/10/06 07:25:39;;;;;;;12.57;1.67;;;12.90;99.90;;;;;;4962513;28;20720;-94
2021/10/06 07:28:05;;;;;;;12.87;2.27;;;12.90;99.90;;;;;;4974472;28;20270;-94
2021/10/06 07:30:31;;;;;;;17.27;2.10;;;12.80;99.90;;;;;;4971954;28;20569;-93
2021/10/06 07:32:58;;;;;;;11.60;1.83;;;12.80;99.90;;;;;;4964582;28;20681;-93
2021/10/06 07:35:24;;;;;;;11.50;1.60;;;12.80;99.90;;;;;;4960482;28;20229;-94
2021/10/06 07:37:50;;;;;;;12.10;1.97;;;12.90;99.90;;;;;;4959939;28;20190;-93
2021/10/06 07:40:16;;;;;;;10.83;1.77;;;13.00;99.90;;;;;;4975560;28;20202;-93
2021/10/06 07:42:41;;;;;;;12.63;1.77;;;13.10;99.90;;;;;;4960289;28;20180;-94
2021/10/06 07:45:08;;;;;;;12.33;1.90;;;13.10;99.90;;;;;;4960418;28;20186;-95
2021/10/06 07:47:33;;;;;;;8.90;1.80;;;13.20;99.90;;;;;;4959463;28;20187;-94
2021/10/06 07:49:59;;;;;;;9.97;1.80;;;13.20;99.90;;;;;;4977769;28;20242;-93
2021/10/06 07:52:27;;;;;;;12.33;1.87;;;13.30;99.90;;;;;;4960710;28;20192;-93
2021/10/06 07:54:52;;;;;;;10.97;1.87;;;13.30;99.90;;;;;;4961633;28;20285;-94
2021/10/06 07:57:18;;;;;;;11.57;1.90;;;13.30;99.90;;;;;;4973387;28;20270;-93
2021/10/06 07:59:44;;;;;;;12.23;2.00;;;13.10;99.90;;;;;;4959027;28;20724;-94
2021/10/06 08:02:10;;;;;;;13.00;2.33;;;13.00;99.90;;;;;;4958895;28;20233;-94
2021/10/06 08:04:37;;;;;;;10.50;1.80;;;13.00;99.90;;;;;;4977687;28;20222;-94
2021/10/06 08:07:03;;;;;;;10.50;1.90;;;13.00;99.90;;;;;;4974123;28;20180;-91
2021/10/06 08:09:30;;;;;;;13.03;2.10;;;12.70;99.90;;;;;;4958723;28;20183;-93
2021/10/06 08:11:55;;;;;;;10.83;2.00;;;12.80;99.90;;;;;;4977910;28;20206;-94
2021/10/06 08:14:21;;;;;;;7.47;1.80;;;12.70;99.90;;;;;;4978236;28;20190;-93
2021/10/06 08:16:47;;;;;;;7.17;1.80;;;12.80;99.90;;;;;;4962497;28;20179;-94
2021/10/06 08:19:13;;;;;;;8.83;2.00;;;12.90;99.90;;;;;;4976585;28;20186;-94
2021/10/06 08:21:38;;;;;;;10.53;2.00;;;12.90;99.90;;;;;;4959986;28;20569;-94
2021/10/06 08:24:04;;;;;;;9.63;2.03;;;13.00;99.90;;;;;;4974980;28;20271;-95
2021/10/06 08:26:30;;;;;;;8.13;1.80;;;13.20;99.90;;;;;;4958203;28;20186;-94
2021/10/06 08:28:56;;;;;;;9.23;2.00;;;13.20;99.90;;;;;;4960834;28;20531;-94
2021/10/06 08:31:23;;;;;;;10.33;1.90;;;13.20;99.90;;;;;;4970051;28;20195;-93
2021/10/06 08:33:49;;;;;;;10.57;1.90;;;13.20;99.90;;;;;;4956684;28;20199;-93
2021/10/06 08:36:15;;;;;;;13.33;2.43;;;13.10;99.90;;;;;;4989999;28;20234;-94
2021/10/06 08:38:41;;;;;;;8.80;1.93;;;12.80;99.90;;;;;;4961125;28;20191;-93
2021/10/06 08:41:07;;;;;;;8.53;2.20;;;12.80;99.90;;;;;;4975837;28;20214;-93
2021/10/06 08:43:37;;;;;;;11.00;1.90;;;12.70;99.90;;;;;;4976526;28;20191;-94
2021/10/06 08:46:03;;;;;;;10.13;1.90;;;12.80;99.90;;;;;;4955862;28;20187;-94
2021/10/06 08:48:29;;;;;;;12.77;2.00;;;12.90;99.90;;;;;;4969377;28;20210;-95
2021/10/06 08:50:55;;;;;;;8.27;1.63;;;13.00;99.90;;;;;;4961266;28;20274;-94
2021/10/06 08:53:20;;;;;;;12.90;1.90;;;13.10;99.90;;;;;;4960007;28;20254;-93
2021/10/06 08:55:47;;;;;;;10.40;1.90;;;13.10;99.90;;;;;;4960316;28;20195;-95
2021/10/06 08:58:13;;;;;;;13.10;2.47;;;13.10;99.90;;;;;;4962308;28;20186;-94
2021/10/06 09:01:05;;;;;;;12.57;2.33;;;13.20;99.90;;;;;;4962123;28;20287;-94
2021/10/06 09:03:36;;;;;;;7.17;1.60;;;13.30;99.90;;;;;;4971204;28;20215;-94
2021/10/06 09:06:15;;;;;;;9.30;2.23;;;13.40;99.90;;;;;;4977987;28;20195;-94
2021/10/06 09:08:46;;;;;;;9.07;1.90;;;13.30;99.90;;;;;;4965651;28;20193;-93
2021/10/06 09:11:13;;;;;;;12.90;1.83;;;13.40;99.90;;;;;;4961702;28;20309;-95
2021/10/06 09:13:42;;;;;;;11.23;2.10;;;13.30;99.90;;;;;;4974738;28;20191;-93
2021/10/06 09:16:09;;;;;;;11.93;2.20;;;13.30;99.90;;;;;;4962312;28;20221;-94
2021/10/06 09:18:36;;;;;;;9.23;2.60;;;13.20;99.90;;;;;;4961957;28;20190;-94
2021/10/06 09:21:06;;;;;;;13.43;2.40;;;13.30;99.90;;;;;;4960516;28;20222;-93
2021/10/06 09:23:37;;;;;;;11.77;2.80;;;13.40;99.90;;;;;;4959945;28;20683;-95
2021/10/06 09:26:06;;;;;;;11.60;3.13;;;13.10;99.90;;;;;;4981104;28;20183;-95
2021/10/06 09:28:41;;;;;;;11.27;2.70;;;13.20;99.90;;;;;;4979939;28;20242;-95
2021/10/06 09:31:07;;;;;;;8.87;2.73;;;13.20;99.90;;;;;;4976150;28;20193;-96
2021/10/06 09:33:39;;;;;;;11.07;2.60;;;13.00;99.90;;;;;;4959862;28;20255;-96
2021/10/06 09:36:14;;;;;;;10.00;2.67;;;13.00;99.90;;;;;;4962084;28;20321;-96
2021/10/06 09:38:52;;;;;;;10.90;3.00;;;13.20;99.90;;;;;;4961537;28;20178;-96
2021/10/06 09:41:33;;;;;;;9.90;2.63;;;13.30;99.90;;;;;;4977802;28;20238;-96
2021/10/06 09:44:22;;;;;;;12.40;2.83;;;13.30;99.90;;;;;;4960798;28;20183;-96
2021/10/06 09:46:56;;;;;;;15.73;3.17;;;13.10;99.90;;;;;;4981841;28;20179;-95
2021/10/06 09:49:28;;;;;;;14.23;2.97;;;13.00;99.90;;;;;;4964542;28;20181;-95
2021/10/06 09:52:14;;;;;;;13.80;3.77;;;13.10;99.90;;;;;;4961906;28;20195;-95
2021/10/06 09:54:56;;;;;;;8.77;2.87;;;13.20;99.90;;;;;;4964606;28;20217;-95
2021/10/06 09:57:28;;;;;;;8.47;3.03;;;13.30;99.90;;;;;;4968915;28;20249;-96
2021/10/06 09:59:55;;;;;;;11.93;3.50;;;13.40;99.90;;;;;;4963171;28;20234;-95
2021/10/06 10:02:23;;;;;;;9.07;2.73;;;13.40;99.90;;;;;;4975073;28;20225;-95
2021/10/06 10:04:49;;;;;;;10.73;3.40;;;13.30;99.90;;;;;;4982853;28;20201;-95
2021/10/06 10:07:16;;;;;;;6.87;3.07;;;13.00;99.90;;;;;;4967992;28;20190;-96
2021/10/06 10:09:42;;;;;;;11.53;3.70;;;13.00;99.90;;;;;;4979318;28;20263;-95
2021/10/06 10:12:09;;;;;;;12.13;3.53;;;13.10;99.90;;;;;;4962660;28;20184;-95
2021/10/06 10:14:35;;;;;;;11.80;4.00;;;13.20;99.90;;;;;;4976475;28;20183;-93
2021/10/06 10:17:00;;;;;;;10.50;3.40;;;13.20;99.90;;;;;;4965541;28;20184;-94
2021/10/06 10:19:27;;;;;;;9.20;3.30;;;13.20;99.90;;;;;;4982106;28;20527;-94
2021/10/06 10:21:55;;;;;;;8.27;3.07;;;13.30;99.90;;;;;;4972276;28;20180;-94
2021/10/06 10:24:23;;;;;;;11.77;3.87;;;13.00;99.90;;;;;;4985129;28;20187;-95
2021/10/06 10:27:07;;;;;;;8.23;4.17;;;12.90;99.90;;;;;;4976149;28;20172;-94
2021/10/06 10:29:43;;;;;;;11.43;4.67;;;12.80;99.90;;;;;;4959893;28;20210;-95
2021/10/06 10:32:12;;;;;;;16.37;4.93;;;12.90;99.90;;;;;;4961362;28;20651;-95
2021/10/06 10:34:59;;;;;;;9.07;4.73;;;13.20;99.90;;;;;;4963744;28;20627;-94
2021/10/06 10:37:49;;;;;;;9.63;4.90;;;13.20;99.90;;;;;;4975454;28;20187;-94
2021/10/06 10:40:44;;;;;;;11.17;5.20;;;13.10;99.90;;;;;;4973163;28;20221;-94
2021/10/06 10:43:21;;;;;;;11.57;5.70;;;12.90;99.90;;;;;;4972479;28;20190;-93
2021/10/06 10:45:59;;;;;;;11.00;5.30;;;12.90;99.90;;;;;;4964572;28;20197;-94
2021/10/06 10:48:28;;;;;;;12.00;5.57;;;12.50;99.90;;;;;;4979901;28;20190;-95
2021/10/06 10:50:57;;;;;;;14.67;6.20;;;12.40;99.90;;;;;;4955513;28;20185;-95
2021/10/06 10:53:51;;;;;;;13.90;5.83;;;12.60;99.90;;;;;;4959307;28;20702;-94
2021/10/06 10:56:39;;;;;;;10.13;6.47;;;12.70;99.90;;;;;;4961725;28;20314;-94
2021/10/06 10:59:06;;;;;;;11.73;5.97;;;12.90;99.90;;;;;;4960635;28;20198;-93
2021/10/06 11:01:57;;;;;;;13.47;6.40;;;12.80;99.90;;;;;;4977668;28;20199;-94
2021/10/06 11:04:29;;;;;;;14.00;6.87;;;12.70;99.90;;;;;;4970862;28;20644;-95
2021/10/06 11:07:17;;;;;;;11.10;6.07;;;12.70;99.90;;;;;;4958845;28;20187;-93
2021/10/06 11:10:17;;;;;;;10.87;5.90;;;12.90;99.90;;;;;;4956699;28;20202;-95
2021/10/06 11:12:53;;;;;;;12.93;5.67;;;13.00;99.90;;;;;;4974955;28;20245;-94
2021/10/06 11:15:19;;;;;;;13.13;6.13;;;12.80;99.90;;;;;;4962154;28;20216;-95
2021/10/06 11:18:07;;;;;;;13.63;6.33;;;12.80;99.90;;;;;;4958142;28;20662;-93
2021/10/06 11:20:46;;;;;;;13.43;6.43;;;12.90;99.90;;;;;;4974325;28;20215;-95
2021/10/06 11:23:30;;;;;;;13.87;6.87;;;13.00;99.90;;;;;;4993628;28;20194;-94
2021/10/06 11:26:16;;;;;;;13.83;6.23;;;13.30;99.90;;;;;;4957503;28;20195;-94
2021/10/06 11:28:47;;;;;;;11.87;5.90;;;13.20;99.90;;;;;;4961117;28;20691;-94
2021/10/06 11:31:15;;;;;;;13.10;6.70;;;13.20;99.90;;;;;;4981086;28;20191;-93
2021/10/06 11:33:41;;;;;;;12.80;6.27;;;13.30;99.90;;;;;;4962851;28;20190;-93
2021/10/06 11:36:25;;;;;;;10.93;5.90;;;13.00;99.90;;;;;;4956186;28;20228;-93
2021/10/06 11:39:11;;;;;;;13.40;6.00;;;12.90;99.90;;;;;;4958963;28;20195;-94
2021/10/06 11:41:43;;;;;;;14.63;6.60;;;12.90;99.90;;;;;;4980850;28;20237;-95
2021/10/06 11:44:09;;;;;;;15.40;6.17;;;13.10;99.90;;;;;;4962417;28;20187;-94
2021/10/06 11:46:35;;;;;;;12.67;5.93;;;12.90;99.90;;;;;;4961930;28;20249;-94
2021/10/06 11:49:05;;;;;;;13.83;6.73;;;12.80;99.90;;;;;;4964805;28;20190;-95
2021/10/06 11:52:04;;;;;;;14.13;6.43;;;12.90;99.90;;;;;;4978261;28;20215;-95
2021/10/06 11:54:30;;;;;;;13.77;7.30;;;13.10;99.90;;;;;;4918535;28;20204;-94
2021/10/06 11:57:01;;;;;;;15.03;6.60;;;13.30;99.90;;;;;;4960628;28;20235;-93
2021/10/06 11:59:33;;;;;;;14.47;6.70;;;13.40;99.90;;;;;;4979262;28;20199;-95
2021/10/06 12:02:06;;;;;;;12.63;6.20;;;13.30;99.90;;;;;;4957831;28;20204;-94
2021/10/06 12:04:37;;;;;;;15.37;6.50;;;13.30;99.90;;;;;;4965203;28;20202;-91
2021/10/06 12:07:10;;;;;;;10.67;5.50;;;13.40;99.90;;;;;;4955990;28;20195;-93
2021/10/06 12:09:50;;;;;;;9.40;6.50;;;13.40;99.90;;;;;;4954226;28;20198;-93
2021/10/06 12:12:23;;;;;;;11.70;5.60;;;13.40;99.90;;;;;;4958894;28;20202;-93
2021/10/06 12:14:59;;;;;;;12.03;6.17;;;13.40;99.90;;;;;;4973644;28;20191;-92
2021/10/06 12:17:33;;;;;;;13.40;6.30;;;13.30;99.90;;;;;;4958187;28;20411;-92
2021/10/06 12:20:11;;;;;;;12.17;5.87;;;13.30;99.90;;;;;;4974571;28;20199;-93
2021/10/06 12:22:38;;;;;;;12.43;6.03;;;13.40;99.90;;;;;;4958505;28;20176;-94
2021/10/06 12:25:10;;;;;;;15.10;6.37;;;13.40;99.90;;;;;;4959392;28;20183;-93
2021/10/06 12:27:39;;;;;;;13.77;6.00;;;13.70;99.90;;;;;;4976384;28;20335;-93
2021/10/06 12:30:08;;;;;;;12.80;6.10;;;13.70;99.90;;;;;;4959686;28;20197;-93
2021/10/06 12:32:34;;;;;;;11.93;5.23;;;13.90;99.90;;;;;;4963768;28;20191;-93
2021/10/06 12:35:12;;;;;;;10.77;4.53;;;14.30;99.90;;;;;;4962068;28;20240;-92
2021/10/06 12:37:59;;;;;;;7.83;3.33;;;14.30;99.90;;;;;;4979372;28;20192;-93
2021/10/06 12:40:46;;;;;;;9.87;3.17;;;14.50;99.90;;;;;;4990424;28;20233;-94
2021/10/06 12:43:21;;;;;;;6.10;3.00;;;14.70;99.90;;;;;;4972137;28;20184;-88
2021/10/06 12:46:09;;;;;;;7.23;3.13;;;14.90;99.90;;;;;;4991624;28;20572;-87